Airfield :
LOGIN :

Register | Disclaimer

   EN    FR    IT 

 










Legend :    VFR   Marginal VFR   IFR   Intensive IFR   Very Intensive IFR
Visi :
Ceiling :
>= 8 km
>= 3000ft
5 to 8 km
1000 to 3000 ft
1500m to 5 km
500 to 1000 ft
800 to 1500m
200 to 500 ft
< 800m
< 200 ft
Symbols :   Thunderstorms  Fog  Heavy snow  Heavy precipitations  Wind > 20 kt
SIGMETs :     Misc.  Thunderstorms  Icing  Turbulence  Mountain Waves  Volcanic Ashes







- Airport Elevation : 359 ft
- IATA code : BVA
- Download approach charts


LFOB - Beauvais

CURRENT METAR :
  • 142230Z AUTO 27003KT 9999 BKN030 15/13 Q1021 TEMPO BKN011

EXPIRED METARs :
  • 142200Z AUTO 26003KT 9999 SCT031 15/13 Q1021 TEMPO BKN011
  • 142130Z AUTO 25002KT CAVOK 15/13 Q1020 TEMPO BKN011
  • 142100Z AUTO 28004KT CAVOK 16/13 Q1020 TEMPO BKN011
  • 142030Z AUTO 27004KT CAVOK 16/13 Q1020 TEMPO BKN011
  • 142000Z AUTO 28006KT CAVOK 17/13 Q1020 NOSIG

TAF TAF LFOB
Valid from the 14 at 18:00 until the 15 at 18:00 UTC


141700Z 1418/1518 32010KT 9999 SCT045
BECMG 1419/1421 26007KT
TEMPO 1422/1507 BKN011
ATIS : +33 3 44 11 49 28
No reported NOTAMs for that airfield.



MET'MAP, your aeronautical weather chart ! - Copyright ORBIFLY December 2007 - Disclaimer

ORBIFLY MET'MAP TEAM :

Programming & Development : Alexandra Zaïnal
Concept & Development : Baudouin d'Aumeries
Co-Development & Prog : Marc-Olivier Méhu
Technical & hardware support : Manuel Goepfert

Contact : metmap@orbifly.com




SOURCES & CREDITS :

   NOAA